createdAt,value
2019-04-20T00:02:22.064Z,6.37
2019-04-20T00:04:51.583Z,9.30
2019-04-20T00:07:40.264Z,9.17
2019-04-20T00:10:30.977Z,6.57
2019-04-20T00:13:24.634Z,8.70
2019-04-20T00:15:55.697Z,7.23
2019-04-20T00:18:43.089Z,6.63
2019-04-20T00:21:42.635Z,6.00
2019-04-20T00:27:43.112Z,8.60
2019-04-20T00:30:32.644Z,6.47
2019-04-20T00:33:01.812Z,7.87
2019-04-20T00:35:33.859Z,10.63
2019-04-20T00:38:15.984Z,8.90
2019-04-20T00:41:02.790Z,8.60
2019-04-20T00:43:42.065Z,9.03
2019-04-20T00:46:32.898Z,7.37
2019-04-20T00:49:20.753Z,9.63
2019-04-20T00:52:20.746Z,7.77
2019-04-20T00:54:33.109Z,9.17
2019-04-20T00:57:24.788Z,9.00
2019-04-20T01:00:17.779Z,9.70
2019-04-20T01:02:50.622Z,7.50
2019-04-20T01:06:04.110Z,9.50
2019-04-20T01:08:31.760Z,9.40
2019-04-20T01:11:16.668Z,7.00
2019-04-20T01:14:02.249Z,9.73
2019-04-20T01:16:47.002Z,9.67
2019-04-20T01:19:21.846Z,8.37
2019-04-20T01:22:07.903Z,8.77
2019-04-20T01:24:48.264Z,10.83
2019-04-20T01:27:39.925Z,11.27
2019-04-20T01:30:20.795Z,11.17
2019-04-20T01:33:08.896Z,8.87
2019-04-20T01:35:53.566Z,8.27
2019-04-20T01:38:38.809Z,11.57
2019-04-20T01:41:03.595Z,10.37
2019-04-20T01:43:46.157Z,10.37
2019-04-20T01:46:28.907Z,10.90
2019-04-20T01:49:15.681Z,10.87
2019-04-20T01:52:03.873Z,10.63
2019-04-20T01:54:56.678Z,10.60
2019-04-20T02:00:44.863Z,9.67
2019-04-20T02:03:46.743Z,8.60
2019-04-20T02:06:28.579Z,9.63
2019-04-20T02:09:15.725Z,10.77
2019-04-20T02:11:55.279Z,9.00
2019-04-20T02:14:43.684Z,10.30
2019-04-20T02:17:16.831Z,15.83
2019-04-20T02:20:18.357Z,9.27
2019-04-20T02:22:55.389Z,10.33
2019-04-20T02:25:24.907Z,9.23
2019-04-20T02:28:27.381Z,9.90
2019-04-20T02:34:33.579Z,11.03
2019-04-20T02:37:18.702Z,12.43
2019-04-20T02:39:54.296Z,11.50
2019-04-20T02:45:24.152Z,12.17
2019-04-20T02:48:06.512Z,9.53
2019-04-20T02:50:47.501Z,8.70
2019-04-20T02:53:34.392Z,12.43
2019-04-20T02:56:19.290Z,10.87
2019-04-20T02:59:02.026Z,9.77
2019-04-20T03:01:27.789Z,11.93
2019-04-20T03:03:53.877Z,11.73
2019-04-20T03:06:46.698Z,11.27
2019-04-20T03:09:40.328Z,9.10
2019-04-20T03:12:23.752Z,10.33
2019-04-20T03:14:52.762Z,10.17
2019-04-20T03:17:46.010Z,7.77
2019-04-20T03:20:30.258Z,8.67
2019-04-20T03:23:23.318Z,11.87
2019-04-20T03:29:24.610Z,8.47
2019-04-20T03:32:53.457Z,10.93
2019-04-20T03:35:20.708Z,10.90
2019-04-20T03:37:53.492Z,14.23
2019-04-20T03:40:21.545Z,11.13
2019-04-20T03:42:50.618Z,11.57
2019-04-20T03:45:43.672Z,11.80
2019-04-20T03:48:38.163Z,10.30
2019-04-20T03:51:28.104Z,14.57
2019-04-20T03:57:29.326Z,11.17
2019-04-20T04:00:26.734Z,10.83
2019-04-20T04:03:19.999Z,11.77
2019-04-20T04:06:09.530Z,13.53
2019-04-20T04:08:55.867Z,11.23
2019-04-20T04:11:38.181Z,12.10
2019-04-20T04:14:07.139Z,13.17
2019-04-20T04:16:53.859Z,11.77
2019-04-20T04:19:35.372Z,11.03
2019-04-20T04:22:26.243Z,13.30
2019-04-20T04:25:10.238Z,14.97
2019-04-20T04:27:59.471Z,11.57
2019-04-20T04:30:36.534Z,11.00
2019-04-20T04:33:50.427Z,20.03
2019-04-20T04:36:08.881Z,16.47
2019-04-20T04:38:55.162Z,15.57
2019-04-20T04:41:30.998Z,13.53
2019-04-20T04:44:11.214Z,15.03
2019-04-20T04:46:45.895Z,10.40
2019-04-20T04:49:28.472Z,11.80
2019-04-20T04:52:10.343Z,12.23
2019-04-20T04:54:59.022Z,13.30
2019-04-20T04:57:30.816Z,18.20
2019-04-20T05:00:19.839Z,12.30
2019-04-20T05:03:01.623Z,11.87
2019-04-20T05:06:09.903Z,13.33
2019-04-20T05:08:38.738Z,12.77
2019-04-20T05:11:15.607Z,11.60
2019-04-20T05:14:03.233Z,10.47
2019-04-20T05:16:55.262Z,12.73
2019-04-20T05:19:49.813Z,11.77
2019-04-20T05:22:32.251Z,11.53
2019-04-20T05:25:31.107Z,11.30
2019-04-20T05:28:14.415Z,9.87
2019-04-20T05:30:46.893Z,9.57
2019-04-20T05:33:34.385Z,8.47
2019-04-20T05:36:23.437Z,10.77
2019-04-20T05:39:19.174Z,10.07
2019-04-20T05:41:45.779Z,12.63
2019-04-20T05:44:41.729Z,10.37
2019-04-20T05:47:24.017Z,10.53
2019-04-20T05:49:56.997Z,8.40
2019-04-20T05:55:35.943Z,11.03
2019-04-20T05:58:18.103Z,13.47
2019-04-20T06:01:01.655Z,17.70
2019-04-20T06:03:37.174Z,12.33
2019-04-20T06:06:22.169Z,12.40
2019-04-20T06:11:55.052Z,8.33
2019-04-20T06:14:42.519Z,12.07
2019-04-20T06:17:37.367Z,10.43
2019-04-20T06:20:21.841Z,12.20
2019-04-20T06:23:05.337Z,9.40
2019-04-20T06:26:11.031Z,10.17
2019-04-20T06:28:32.263Z,14.60
2019-04-20T06:31:22.720Z,8.93
2019-04-20T06:34:19.561Z,9.30
2019-04-20T06:36:47.183Z,11.70
2019-04-20T06:39:33.579Z,11.27
2019-04-20T06:44:50.951Z,7.87
2019-04-20T06:47:42.793Z,12.37
2019-04-20T06:50:18.577Z,12.07
2019-04-20T06:53:32.353Z,7.50
2019-04-20T06:56:15.936Z,11.67
2019-04-20T06:58:58.839Z,10.30
2019-04-20T07:01:48.687Z,12.73
2019-04-20T07:04:40.247Z,12.40
2019-04-20T07:07:10.237Z,9.57
2019-04-20T07:12:27.336Z,9.80
2019-04-20T07:15:08.414Z,10.40
2019-04-20T07:21:15.962Z,9.50
2019-04-20T07:23:43.710Z,14.10
2019-04-20T07:26:30.129Z,9.27
2019-04-20T07:29:07.117Z,12.50
2019-04-20T07:31:45.892Z,10.80
2019-04-20T07:34:34.382Z,11.50
2019-04-20T07:40:06.183Z,10.27
2019-04-20T07:42:51.806Z,10.43
2019-04-20T07:45:32.988Z,15.63
2019-04-20T07:48:18.001Z,12.07
2019-04-20T07:50:48.584Z,9.43
2019-04-20T07:53:34.373Z,9.27
2019-04-20T07:56:28.352Z,14.43
2019-04-20T07:58:52.705Z,14.43
2019-04-20T08:02:17.234Z,11.33
2019-04-20T08:05:08.192Z,12.40
2019-04-20T08:07:46.398Z,9.17
2019-04-20T08:10:33.779Z,11.13
2019-04-20T08:13:32.948Z,10.13
2019-04-20T08:16:11.599Z,14.17
2019-04-20T08:18:51.353Z,13.30
2019-04-20T08:21:35.174Z,11.97
2019-04-20T08:24:13.155Z,12.97
2019-04-20T08:26:46.392Z,9.43
2019-04-20T08:29:37.975Z,9.63
2019-04-20T08:32:41.459Z,8.57
2019-04-20T08:35:31.958Z,13.40
2019-04-20T08:38:36.936Z,10.90
2019-04-20T08:40:53.918Z,13.00
2019-04-20T08:46:26.537Z,8.93
2019-04-20T08:49:13.184Z,8.20
2019-04-20T08:52:00.028Z,9.30
2019-04-20T08:54:31.242Z,9.83
2019-04-20T08:56:59.635Z,9.93
2019-04-20T08:59:40.206Z,11.03
2019-04-20T09:02:22.094Z,8.93
2019-04-20T09:05:18.612Z,9.47
2019-04-20T09:08:02.591Z,10.07
2019-04-20T09:10:49.512Z,8.53
2019-04-20T09:13:26.991Z,7.63
2019-04-20T09:16:00.301Z,7.13
2019-04-20T09:18:50.330Z,8.10
2019-04-20T09:21:36.671Z,7.80
2019-04-20T09:24:21.762Z,10.10
2019-04-20T09:30:00.483Z,9.80
2019-04-20T09:32:46.376Z,5.13
2019-04-20T09:35:34.103Z,8.20
2019-04-20T09:38:11.304Z,10.30
2019-04-20T09:40:57.245Z,9.17
2019-04-20T09:43:43.445Z,9.43
2019-04-20T09:46:26.304Z,6.30
2019-04-20T09:49:18.644Z,6.97
2019-04-20T09:52:07.855Z,9.10
2019-04-20T09:54:51.069Z,4.27
2019-04-20T09:57:35.058Z,4.70
2019-04-20T10:00:17.140Z,8.37
2019-04-20T10:02:44.566Z,6.33
2019-04-20T10:05:25.893Z,9.50
2019-04-20T10:08:09.939Z,5.13
2019-04-20T10:10:51.193Z,13.03
2019-04-20T10:13:34.326Z,6.50
2019-04-20T10:16:15.700Z,9.20
2019-04-20T10:18:57.094Z,4.77
2019-04-20T10:21:38.860Z,3.50
2019-04-20T10:24:20.970Z,2.52
2019-04-20T10:27:02.996Z,5.28
2019-04-20T10:29:44.308Z,4.92
2019-04-20T10:32:34.177Z,5.05
2019-04-20T10:35:09.024Z,3.27
2019-04-20T10:41:05.376Z,5.95
2019-04-20T10:43:36.326Z,4.10
2019-04-20T10:46:17.885Z,4.00
2019-04-20T10:49:03.752Z,2.42
2019-04-20T10:51:41.851Z,6.08
2019-04-20T10:54:23.049Z,3.77
2019-04-20T10:57:05.797Z,5.33
2019-04-20T10:59:47.765Z,4.15
2019-04-20T11:02:29.854Z,4.92
2019-04-20T11:05:12.667Z,8.80
2019-04-20T11:07:54.719Z,2.20
2019-04-20T11:10:53.309Z,3.15
2019-04-20T11:13:19.419Z,5.78
2019-04-20T11:16:06.524Z,3.60
2019-04-20T11:18:47.591Z,4.80
2019-04-20T11:21:29.969Z,5.15
2019-04-20T11:24:12.267Z,3.10
2019-04-20T11:26:54.113Z,3.08
2019-04-20T11:29:36.042Z,2.40
2019-04-20T11:32:18.041Z,4.22
2019-04-20T11:35:02.236Z,8.00
2019-04-20T11:37:42.922Z,3.05
2019-04-20T11:40:23.772Z,6.25
2019-04-20T11:43:05.798Z,6.08
2019-04-20T11:45:48.797Z,6.65
2019-04-20T11:48:31.614Z,4.42
2019-04-20T11:51:13.657Z,3.22
2019-04-20T11:53:56.324Z,2.30
2019-04-20T11:56:40.730Z,3.55
2019-04-20T11:59:21.093Z,2.27
2019-04-20T12:02:29.079Z,7.28
2019-04-20T12:05:21.284Z,3.45
2019-04-20T12:07:51.074Z,4.55
2019-04-20T12:10:33.159Z,3.30
2019-04-20T12:13:16.490Z,3.67
2019-04-20T12:15:59.420Z,5.08
2019-04-20T12:18:40.434Z,7.30
2019-04-20T12:21:21.460Z,8.40
2019-04-20T12:24:04.404Z,10.05
2019-04-20T12:26:45.215Z,6.28
2019-04-20T12:29:17.131Z,8.10
2019-04-20T12:32:08.601Z,8.43
2019-04-20T12:34:56.215Z,8.15
2019-04-20T12:37:37.239Z,2.50
2019-04-20T12:40:19.812Z,2.67
2019-04-20T12:43:01.383Z,5.40
2019-04-20T12:45:44.036Z,2.62
2019-04-20T12:48:25.935Z,3.58
2019-04-20T12:51:08.618Z,1.87
2019-04-20T12:53:50.757Z,5.00
2019-04-20T12:56:32.779Z,4.10
2019-04-20T12:59:15.689Z,4.95
2019-04-20T13:01:57.516Z,3.62
2019-04-20T13:04:41.557Z,2.95
2019-04-20T13:07:22.818Z,4.37
2019-04-20T13:10:05.835Z,5.53
2019-04-20T13:13:08.085Z,8.90
2019-04-20T13:16:10.162Z,2.27
2019-04-20T13:19:01.564Z,7.12
2019-04-20T13:21:45.146Z,5.00
2019-04-20T13:24:27.160Z,3.25
2019-04-20T13:27:09.067Z,7.53
2019-04-20T13:29:52.231Z,3.37
2019-04-20T13:32:33.800Z,9.40
2019-04-20T13:35:16.250Z,7.60
2019-04-20T13:37:58.195Z,5.67
2019-04-20T13:40:39.803Z,3.72
2019-04-20T13:43:21.687Z,6.10
2019-04-20T13:46:03.082Z,5.25
2019-04-20T13:48:44.845Z,8.23
2019-04-20T13:51:26.576Z,12.58
2019-04-20T13:54:14.503Z,4.97
2019-04-20T13:56:52.835Z,2.58
2019-04-20T13:59:39.622Z,4.53
2019-04-20T14:02:40.695Z,5.37
2019-04-20T14:08:33.619Z,7.30
2019-04-20T14:11:17.772Z,4.47
2019-04-20T14:14:03.591Z,4.90
2019-04-20T14:16:45.219Z,3.02
2019-04-20T14:19:27.723Z,5.75
2019-04-20T14:22:10.274Z,6.03
2019-04-20T14:24:53.247Z,6.08
2019-04-20T14:27:34.947Z,7.50
2019-04-20T14:30:17.145Z,4.10
2019-04-20T14:33:01.354Z,5.28
2019-04-20T14:35:42.963Z,3.27
2019-04-20T14:38:24.604Z,3.02
2019-04-20T14:41:06.425Z,5.28
2019-04-20T14:43:48.962Z,12.37
2019-04-20T14:46:29.841Z,3.42
2019-04-20T14:49:12.477Z,7.03
2019-04-20T14:51:56.395Z,6.20
2019-04-20T14:54:37.571Z,2.12
2019-04-20T14:57:19.296Z,6.22
2019-04-20T15:00:03.729Z,6.50
2019-04-20T15:02:45.845Z,5.78
2019-04-20T15:05:30.715Z,7.67
2019-04-20T15:08:12.356Z,8.88
2019-04-20T15:10:56.868Z,8.93
2019-04-20T15:13:40.654Z,10.68
2019-04-20T15:16:22.527Z,10.72
2019-04-20T15:19:23.410Z,9.93
2019-04-20T15:22:07.422Z,9.75
2019-04-20T15:24:49.886Z,8.35
2019-04-20T15:27:31.153Z,4.80
2019-04-20T15:30:13.829Z,6.53
2019-04-20T15:32:54.888Z,8.70
2019-04-20T15:35:37.790Z,7.95
2019-04-20T15:38:19.001Z,7.65
2019-04-20T15:41:00.579Z,7.17
2019-04-20T15:43:43.855Z,8.73
2019-04-20T15:46:25.570Z,6.35
2019-04-20T15:49:08.110Z,10.68
2019-04-20T15:51:50.011Z,9.15
2019-04-20T15:54:31.635Z,10.28
2019-04-20T15:57:18.355Z,5.95
2019-04-20T15:59:56.243Z,7.05
2019-04-20T16:03:03.350Z,6.17
2019-04-20T16:05:49.313Z,6.85
2019-04-20T16:08:32.513Z,11.10
2019-04-20T16:11:15.305Z,9.23
2019-04-20T16:13:58.187Z,8.48
2019-04-20T16:16:41.119Z,11.78
2019-04-20T16:19:37.590Z,8.55
2019-04-20T16:22:07.875Z,9.68
2019-04-20T16:24:53.690Z,8.13
2019-04-20T16:27:38.435Z,16.57
2019-04-20T16:30:19.870Z,7.75
2019-04-20T16:33:00.905Z,11.57
2019-04-20T16:35:42.548Z,10.18
2019-04-20T16:38:27.247Z,8.05
2019-04-20T16:41:08.337Z,8.85
2019-04-20T16:43:50.325Z,10.93
2019-04-20T16:46:32.409Z,8.53
2019-04-20T16:49:13.253Z,6.95
2019-04-20T16:51:55.111Z,10.18
2019-04-20T16:54:37.562Z,13.18
2019-04-20T16:57:19.542Z,12.05
2019-04-20T17:00:01.637Z,7.22
2019-04-20T17:02:44.607Z,9.80
2019-04-20T17:05:27.495Z,8.75
2019-04-20T17:08:08.979Z,6.08
2019-04-20T17:10:51.627Z,10.27
2019-04-20T17:13:40.542Z,9.63
2019-04-20T17:16:17.578Z,7.80
2019-04-20T17:18:59.639Z,9.30
2019-04-20T17:21:42.381Z,5.87
2019-04-20T17:24:25.097Z,9.60
2019-04-20T17:27:26.681Z,6.90
2019-04-20T17:30:27.404Z,7.12
2019-04-20T17:33:10.350Z,6.58
2019-04-20T17:36:01.224Z,9.53
2019-04-20T17:38:41.157Z,9.60
2019-04-20T17:41:40.159Z,7.53
2019-04-20T17:44:19.925Z,8.37
2019-04-20T17:46:54.286Z,10.13
2019-04-20T17:49:41.144Z,12.10
2019-04-20T17:52:35.110Z,12.87
2019-04-20T17:55:01.174Z,11.70
2019-04-20T17:57:43.595Z,11.13
2019-04-20T18:00:49.034Z,10.23
2019-04-20T18:04:03.534Z,8.37
2019-04-20T18:06:25.402Z,9.47
2019-04-20T18:09:10.897Z,11.27
2019-04-20T18:11:46.744Z,9.13
2019-04-20T18:14:40.253Z,9.70
2019-04-20T18:20:11.049Z,11.77
2019-04-20T18:22:56.750Z,9.40
2019-04-20T18:26:01.522Z,13.23
2019-04-20T18:28:32.318Z,10.40
2019-04-20T18:34:14.138Z,11.97
2019-04-20T18:36:54.589Z,10.60
2019-04-20T18:39:41.343Z,12.00
2019-04-20T18:42:43.644Z,16.60
2019-04-20T18:45:33.767Z,13.03
2019-04-20T18:48:24.485Z,15.17
2019-04-20T18:50:49.997Z,10.27
2019-04-20T18:53:38.740Z,16.07
2019-04-20T18:56:16.990Z,16.10
2019-04-20T18:58:58.892Z,13.23
2019-04-20T19:01:43.121Z,18.10
2019-04-20T19:04:23.735Z,15.17
2019-04-20T19:07:05.695Z,11.90
2019-04-20T19:09:48.371Z,12.83
2019-04-20T19:12:41.445Z,11.40
2019-04-20T19:15:55.209Z,10.20
2019-04-20T19:21:35.687Z,10.07
2019-04-20T19:24:20.285Z,11.30
2019-04-20T19:27:08.420Z,8.20
2019-04-20T19:29:58.912Z,10.67
2019-04-20T19:32:39.888Z,8.13
2019-04-20T19:35:27.176Z,10.33
2019-04-20T19:38:06.354Z,10.70
2019-04-20T19:40:47.976Z,12.07
2019-04-20T19:43:30.564Z,17.10
2019-04-20T19:46:39.371Z,8.83
2019-04-20T19:48:57.265Z,11.53
2019-04-20T19:51:55.617Z,9.97
2019-04-20T19:54:34.099Z,9.87
2019-04-20T19:57:16.294Z,11.10
2019-04-20T19:59:45.863Z,8.67
2019-04-20T20:02:23.711Z,8.17
2019-04-20T20:05:08.827Z,11.17
2019-04-20T20:07:52.125Z,9.63
2019-04-20T20:10:34.461Z,7.70
2019-04-20T20:13:13.277Z,12.60
2019-04-20T20:16:01.940Z,15.93
2019-04-20T20:18:51.032Z,16.33
2019-04-20T20:21:32.857Z,16.13
2019-04-20T20:24:04.457Z,17.00
2019-04-20T20:26:54.561Z,12.43
2019-04-20T20:29:36.362Z,9.83
2019-04-20T20:32:20.188Z,8.37
2019-04-20T20:35:05.011Z,8.30
2019-04-20T20:37:42.454Z,10.83
2019-04-20T20:40:27.359Z,10.40
2019-04-20T20:43:14.435Z,11.50
2019-04-20T20:46:01.435Z,8.87
2019-04-20T20:48:49.450Z,11.67
2019-04-20T20:51:41.086Z,11.93
2019-04-20T20:54:04.563Z,12.43
2019-04-20T20:56:49.938Z,12.50
2019-04-20T20:59:35.816Z,13.73
2019-04-20T21:02:12.411Z,13.80
2019-04-20T21:04:49.133Z,17.23
2019-04-20T21:07:29.158Z,18.83
2019-04-20T21:10:15.382Z,19.43
2019-04-20T21:12:56.433Z,19.67
2019-04-20T21:15:35.662Z,17.83
2019-04-20T21:18:39.091Z,15.97
2019-04-20T21:21:11.450Z,17.77
2019-04-20T21:23:53.209Z,19.60
2019-04-20T21:26:32.001Z,16.87
2019-04-20T21:29:10.153Z,28.43
2019-04-20T21:31:59.929Z,46.50
2019-04-20T21:34:35.341Z,39.60
2019-04-20T21:37:20.059Z,41.17
2019-04-20T21:40:03.539Z,36.33
2019-04-20T21:42:49.696Z,35.97
2019-04-20T21:45:30.016Z,22.50
2019-04-20T21:48:12.557Z,19.03
2019-04-20T21:51:11.608Z,16.70
2019-04-20T21:53:35.006Z,20.43
2019-04-20T21:56:19.775Z,21.77
2019-04-20T21:59:04.210Z,23.67
2019-04-20T22:01:56.418Z,21.60
2019-04-20T22:04:27.156Z,23.47
2019-04-20T22:07:08.092Z,23.53
2019-04-20T22:09:53.108Z,17.83
2019-04-20T22:12:39.807Z,20.07
2019-04-20T22:15:23.586Z,24.53
2019-04-20T22:18:05.656Z,20.80
2019-04-20T22:20:53.259Z,21.03
2019-04-20T22:23:43.379Z,21.10
2019-04-20T22:26:18.721Z,19.53
2019-04-20T22:28:50.166Z,17.93
2019-04-20T22:31:31.926Z,18.67
2019-04-20T22:34:17.348Z,18.60
2019-04-20T22:36:56.022Z,19.43
2019-04-20T22:39:45.671Z,17.57
2019-04-20T22:42:23.710Z,19.53
2019-04-20T22:45:09.559Z,17.23
2019-04-20T22:47:48.136Z,20.97
2019-04-20T22:50:43.790Z,15.33
2019-04-20T22:53:28.684Z,17.07
2019-04-20T22:56:15.023Z,18.60
2019-04-20T22:58:49.578Z,17.30
2019-04-20T23:01:29.896Z,17.83
2019-04-20T23:04:04.520Z,20.70
2019-04-20T23:06:49.982Z,19.00
2019-04-20T23:09:28.930Z,19.00
2019-04-20T23:12:16.944Z,19.53
2019-04-20T23:14:54.215Z,17.07
2019-04-20T23:17:39.981Z,16.97
2019-04-20T23:20:25.269Z,20.87
2019-04-20T23:23:02.993Z,17.77
2019-04-20T23:25:45.126Z,18.40
2019-04-20T23:28:26.893Z,18.60
2019-04-20T23:31:15.006Z,17.53
2019-04-20T23:33:51.984Z,21.70
2019-04-20T23:36:38.874Z,19.00
2019-04-20T23:39:16.905Z,26.87
2019-04-20T23:42:02.420Z,18.10
2019-04-20T23:45:07.385Z,24.93
2019-04-20T23:48:00.836Z,24.07
2019-04-20T23:50:50.429Z,17.70
2019-04-20T23:53:32.714Z,16.00
2019-04-20T23:56:01.673Z,22.93
2019-04-20T23:58:46.606Z,30.70
